sensor_id;sensor_type;location;lat;lon;timestamp;P1;durP1;ratioP1;P2;durP2;ratioP2
5867;SDS011;2960;49.142;7.768;2024-03-08T00:02:15;12.50;;;5.77;;
5867;SDS011;2960;49.142;7.768;2024-03-08T00:04:44;14.93;;;5.67;;
5867;SDS011;2960;49.142;7.768;2024-03-08T00:07:11;15.60;;;6.90;;
5867;SDS011;2960;49.142;7.768;2024-03-08T00:09:39;13.13;;;6.33;;
5867;SDS011;2960;49.142;7.768;2024-03-08T00:12:07;15.80;;;6.20;;
5867;SDS011;2960;49.142;7.768;2024-03-08T00:14:36;16.27;;;6.50;;
5867;SDS011;2960;49.142;7.768;2024-03-08T00:17:04;13.90;;;6.40;;
5867;SDS011;2960;49.142;7.768;2024-03-08T00:19:30;13.70;;;6.60;;
5867;SDS011;2960;49.142;7.768;2024-03-08T00:21:57;15.87;;;6.53;;
5867;SDS011;2960;49.142;7.768;2024-03-08T00:24:25;17.43;;;7.40;;
5867;SDS011;2960;49.142;7.768;2024-03-08T00:26:54;13.77;;;6.10;;
5867;SDS011;2960;49.142;7.768;2024-03-08T00:29:21;15.37;;;5.67;;
5867;SDS011;2960;49.142;7.768;2024-03-08T00:31:49;16.87;;;6.40;;
5867;SDS011;2960;49.142;7.768;2024-03-08T00:34:16;14.50;;;6.30;;
5867;SDS011;2960;49.142;7.768;2024-03-08T00:36:43;15.67;;;6.90;;
5867;SDS011;2960;49.142;7.768;2024-03-08T00:39:11;14.20;;;5.40;;
5867;SDS011;2960;49.142;7.768;2024-03-08T00:41:38;15.57;;;6.00;;
5867;SDS011;2960;49.142;7.768;2024-03-08T00:44:05;12.90;;;5.77;;
5867;SDS011;2960;49.142;7.768;2024-03-08T00:46:32;16.17;;;6.50;;
5867;SDS011;2960;49.142;7.768;2024-03-08T00:49:01;14.07;;;6.10;;
5867;SDS011;2960;49.142;7.768;2024-03-08T00:51:28;13.77;;;5.87;;
5867;SDS011;2960;49.142;7.768;2024-03-08T00:53:56;15.23;;;6.77;;
5867;SDS011;2960;49.142;7.768;2024-03-08T00:56:23;16.00;;;6.33;;
5867;SDS011;2960;49.142;7.768;2024-03-08T00:58:50;13.30;;;5.87;;
5867;SDS011;2960;49.142;7.768;2024-03-08T01:01:18;13.37;;;5.70;;
5867;SDS011;2960;49.142;7.768;2024-03-08T01:03:45;14.63;;;5.80;;
5867;SDS011;2960;49.142;7.768;2024-03-08T01:06:15;15.23;;;5.90;;
5867;SDS011;2960;49.142;7.768;2024-03-08T01:08:42;15.13;;;6.10;;
5867;SDS011;2960;49.142;7.768;2024-03-08T01:11:09;18.00;;;6.30;;
5867;SDS011;2960;49.142;7.768;2024-03-08T01:13:36;13.90;;;5.90;;
5867;SDS011;2960;49.142;7.768;2024-03-08T01:16:03;13.10;;;5.47;;
5867;SDS011;2960;49.142;7.768;2024-03-08T01:18:32;14.87;;;6.20;;
5867;SDS011;2960;49.142;7.768;2024-03-08T01:21:01;15.87;;;6.00;;
5867;SDS011;2960;49.142;7.768;2024-03-08T01:23:30;12.60;;;5.40;;
5867;SDS011;2960;49.142;7.768;2024-03-08T01:25:57;15.30;;;6.90;;
5867;SDS011;2960;49.142;7.768;2024-03-08T01:28:25;14.87;;;6.50;;
5867;SDS011;2960;49.142;7.768;2024-03-08T01:30:52;16.77;;;7.20;;
5867;SDS011;2960;49.142;7.768;2024-03-08T01:33:21;13.60;;;6.30;;
5867;SDS011;2960;49.142;7.768;2024-03-08T01:35:50;15.60;;;6.90;;
5867;SDS011;2960;49.142;7.768;2024-03-08T01:38:18;15.70;;;7.10;;
5867;SDS011;2960;49.142;7.768;2024-03-08T01:40:47;15.43;;;6.73;;
5867;SDS011;2960;49.142;7.768;2024-03-08T01:43:18;14.20;;;5.97;;
5867;SDS011;2960;49.142;7.768;2024-03-08T01:45:46;16.03;;;6.00;;
5867;SDS011;2960;49.142;7.768;2024-03-08T01:48:14;13.13;;;5.53;;
5867;SDS011;2960;49.142;7.768;2024-03-08T01:50:43;15.27;;;6.77;;
5867;SDS011;2960;49.142;7.768;2024-03-08T01:53:11;15.70;;;6.53;;
5867;SDS011;2960;49.142;7.768;2024-03-08T01:55:40;13.83;;;6.43;;
5867;SDS011;2960;49.142;7.768;2024-03-08T01:58:09;12.80;;;5.80;;
5867;SDS011;2960;49.142;7.768;2024-03-08T02:00:40;13.80;;;6.33;;
5867;SDS011;2960;49.142;7.768;2024-03-08T02:03:11;18.10;;;7.10;;
5867;SDS011;2960;49.142;7.768;2024-03-08T02:05:38;14.93;;;6.90;;
5867;SDS011;2960;49.142;7.768;2024-03-08T02:08:08;15.23;;;6.70;;
5867;SDS011;2960;49.142;7.768;2024-03-08T02:10:38;17.43;;;7.30;;
5867;SDS011;2960;49.142;7.768;2024-03-08T02:13:06;18.10;;;6.80;;
5867;SDS011;2960;49.142;7.768;2024-03-08T02:15:51;13.97;;;6.00;;
5867;SDS011;2960;49.142;7.768;2024-03-08T02:18:24;17.63;;;7.23;;
5867;SDS011;2960;49.142;7.768;2024-03-08T02:20:53;15.70;;;6.67;;
5867;SDS011;2960;49.142;7.768;2024-03-08T02:23:22;14.47;;;6.20;;
5867;SDS011;2960;49.142;7.768;2024-03-08T02:25:50;14.60;;;6.47;;
5867;SDS011;2960;49.142;7.768;2024-03-08T02:28:18;19.43;;;7.50;;
5867;SDS011;2960;49.142;7.768;2024-03-08T02:30:46;17.87;;;6.43;;
5867;SDS011;2960;49.142;7.768;2024-03-08T02:33:14;16.53;;;7.30;;
5867;SDS011;2960;49.142;7.768;2024-03-08T02:35:42;15.73;;;6.60;;
5867;SDS011;2960;49.142;7.768;2024-03-08T02:38:12;19.00;;;7.37;;
5867;SDS011;2960;49.142;7.768;2024-03-08T02:40:41;16.83;;;6.90;;
5867;SDS011;2960;49.142;7.768;2024-03-08T02:43:09;16.30;;;6.87;;
5867;SDS011;2960;49.142;7.768;2024-03-08T02:45:36;16.10;;;6.60;;
5867;SDS011;2960;49.142;7.768;2024-03-08T02:48:04;15.50;;;6.67;;
5867;SDS011;2960;49.142;7.768;2024-03-08T02:50:32;13.20;;;5.77;;
5867;SDS011;2960;49.142;7.768;2024-03-08T02:53:00;14.80;;;6.20;;
5867;SDS011;2960;49.142;7.768;2024-03-08T02:55:28;19.97;;;7.20;;
5867;SDS011;2960;49.142;7.768;2024-03-08T02:57:55;16.60;;;6.80;;
5867;SDS011;2960;49.142;7.768;2024-03-08T03:00:24;15.20;;;7.10;;
5867;SDS011;2960;49.142;7.768;2024-03-08T03:02:52;14.60;;;6.63;;
5867;SDS011;2960;49.142;7.768;2024-03-08T03:05:19;14.80;;;6.67;;
5867;SDS011;2960;49.142;7.768;2024-03-08T03:07:47;16.40;;;6.90;;
5867;SDS011;2960;49.142;7.768;2024-03-08T03:10:14;14.33;;;6.13;;
5867;SDS011;2960;49.142;7.768;2024-03-08T03:12:44;18.50;;;6.77;;
5867;SDS011;2960;49.142;7.768;2024-03-08T03:15:13;16.27;;;7.10;;
5867;SDS011;2960;49.142;7.768;2024-03-08T03:17:45;17.07;;;6.90;;
5867;SDS011;2960;49.142;7.768;2024-03-08T03:20:13;14.27;;;6.70;;
5867;SDS011;2960;49.142;7.768;2024-03-08T03:22:47;16.80;;;6.03;;
5867;SDS011;2960;49.142;7.768;2024-03-08T03:25:17;15.27;;;6.80;;
5867;SDS011;2960;49.142;7.768;2024-03-08T03:27:51;15.23;;;6.23;;
5867;SDS011;2960;49.142;7.768;2024-03-08T03:30:21;14.83;;;6.20;;
5867;SDS011;2960;49.142;7.768;2024-03-08T03:32:51;15.50;;;5.97;;
5867;SDS011;2960;49.142;7.768;2024-03-08T03:35:19;16.53;;;6.53;;
5867;SDS011;2960;49.142;7.768;2024-03-08T03:37:47;15.37;;;6.13;;
5867;SDS011;2960;49.142;7.768;2024-03-08T03:40:26;17.10;;;7.27;;
5867;SDS011;2960;49.142;7.768;2024-03-08T03:42:55;16.47;;;6.80;;
5867;SDS011;2960;49.142;7.768;2024-03-08T03:45:22;16.50;;;6.83;;
5867;SDS011;2960;49.142;7.768;2024-03-08T03:47:50;16.20;;;6.90;;
5867;SDS011;2960;49.142;7.768;2024-03-08T03:50:17;13.03;;;6.70;;
5867;SDS011;2960;49.142;7.768;2024-03-08T03:52:45;15.23;;;6.23;;
5867;SDS011;2960;49.142;7.768;2024-03-08T03:55:12;14.80;;;6.50;;
5867;SDS011;2960;49.142;7.768;2024-03-08T03:57:40;15.40;;;6.47;;
5867;SDS011;2960;49.142;7.768;2024-03-08T04:00:09;16.27;;;6.20;;
5867;SDS011;2960;49.142;7.768;2024-03-08T04:02:37;15.90;;;6.00;;
5867;SDS011;2960;49.142;7.768;2024-03-08T04:05:07;14.60;;;6.20;;
5867;SDS011;2960;49.142;7.768;2024-03-08T04:07:36;15.80;;;5.90;;
5867;SDS011;2960;49.142;7.768;2024-03-08T04:10:04;16.13;;;6.13;;
5867;SDS011;2960;49.142;7.768;2024-03-08T04:12:33;15.33;;;5.87;;
5867;SDS011;2960;49.142;7.768;2024-03-08T04:15:01;16.33;;;6.10;;
5867;SDS011;2960;49.142;7.768;2024-03-08T04:17:30;13.70;;;5.43;;
5867;SDS011;2960;49.142;7.768;2024-03-08T04:19:57;15.00;;;6.10;;
5867;SDS011;2960;49.142;7.768;2024-03-08T04:22:24;15.97;;;6.17;;
5867;SDS011;2960;49.142;7.768;2024-03-08T04:24:53;15.70;;;5.90;;
5867;SDS011;2960;49.142;7.768;2024-03-08T04:27:20;14.63;;;5.37;;
5867;SDS011;2960;49.142;7.768;2024-03-08T04:29:47;13.50;;;5.20;;
5867;SDS011;2960;49.142;7.768;2024-03-08T04:32:14;14.57;;;5.93;;
5867;SDS011;2960;49.142;7.768;2024-03-08T04:34:43;14.40;;;5.63;;
5867;SDS011;2960;49.142;7.768;2024-03-08T04:37:10;13.10;;;5.20;;
5867;SDS011;2960;49.142;7.768;2024-03-08T04:39:39;14.20;;;5.43;;
5867;SDS011;2960;49.142;7.768;2024-03-08T04:42:06;16.50;;;6.17;;
5867;SDS011;2960;49.142;7.768;2024-03-08T04:44:36;14.43;;;5.60;;
5867;SDS011;2960;49.142;7.768;2024-03-08T04:47:04;17.50;;;5.90;;
5867;SDS011;2960;49.142;7.768;2024-03-08T04:49:32;13.93;;;5.50;;
5867;SDS011;2960;49.142;7.768;2024-03-08T04:52:02;14.00;;;5.57;;
5867;SDS011;2960;49.142;7.768;2024-03-08T04:54:29;15.53;;;5.97;;
5867;SDS011;2960;49.142;7.768;2024-03-08T04:56:57;13.10;;;5.40;;
5867;SDS011;2960;49.142;7.768;2024-03-08T04:59:26;14.10;;;5.60;;
5867;SDS011;2960;49.142;7.768;2024-03-08T05:01:53;17.10;;;6.33;;
5867;SDS011;2960;49.142;7.768;2024-03-08T05:04:21;14.63;;;5.57;;
5867;SDS011;2960;49.142;7.768;2024-03-08T05:06:48;16.43;;;5.87;;
5867;SDS011;2960;49.142;7.768;2024-03-08T05:09:17;16.47;;;5.40;;
5867;SDS011;2960;49.142;7.768;2024-03-08T05:11:44;15.90;;;6.40;;
5867;SDS011;2960;49.142;7.768;2024-03-08T05:14:12;13.57;;;5.10;;
5867;SDS011;2960;49.142;7.768;2024-03-08T05:16:41;16.20;;;5.80;;
5867;SDS011;2960;49.142;7.768;2024-03-08T05:19:13;14.33;;;5.50;;
5867;SDS011;2960;49.142;7.768;2024-03-08T05:21:42;16.23;;;5.93;;
5867;SDS011;2960;49.142;7.768;2024-03-08T05:24:10;14.40;;;5.60;;
5867;SDS011;2960;49.142;7.768;2024-03-08T05:26:39;13.47;;;5.13;;
5867;SDS011;2960;49.142;7.768;2024-03-08T05:29:09;16.07;;;6.30;;
5867;SDS011;2960;49.142;7.768;2024-03-08T05:31:38;13.70;;;5.30;;
5867;SDS011;2960;49.142;7.768;2024-03-08T05:34:13;16.10;;;5.47;;
5867;SDS011;2960;49.142;7.768;2024-03-08T05:36:40;15.10;;;5.83;;
5867;SDS011;2960;49.142;7.768;2024-03-08T05:39:09;13.90;;;5.50;;
5867;SDS011;2960;49.142;7.768;2024-03-08T05:41:37;13.50;;;5.20;;
5867;SDS011;2960;49.142;7.768;2024-03-08T05:44:05;14.67;;;5.47;;
5867;SDS011;2960;49.142;7.768;2024-03-08T05:46:33;13.53;;;5.30;;
5867;SDS011;2960;49.142;7.768;2024-03-08T05:49:01;14.70;;;5.37;;
5867;SDS011;2960;49.142;7.768;2024-03-08T05:51:30;13.80;;;5.73;;
5867;SDS011;2960;49.142;7.768;2024-03-08T05:53:59;13.50;;;5.10;;
5867;SDS011;2960;49.142;7.768;2024-03-08T05:56:28;13.27;;;5.00;;
5867;SDS011;2960;49.142;7.768;2024-03-08T05:58:55;14.37;;;6.40;;
5867;SDS011;2960;49.142;7.768;2024-03-08T06:01:24;15.50;;;5.67;;
5867;SDS011;2960;49.142;7.768;2024-03-08T06:03:51;14.00;;;5.60;;
5867;SDS011;2960;49.142;7.768;2024-03-08T06:06:20;13.90;;;5.60;;
5867;SDS011;2960;49.142;7.768;2024-03-08T06:08:48;14.37;;;5.47;;
5867;SDS011;2960;49.142;7.768;2024-03-08T06:11:15;15.40;;;5.50;;
5867;SDS011;2960;49.142;7.768;2024-03-08T06:13:43;12.87;;;5.30;;
5867;SDS011;2960;49.142;7.768;2024-03-08T06:16:10;13.30;;;5.43;;
5867;SDS011;2960;49.142;7.768;2024-03-08T06:18:39;15.50;;;6.37;;
5867;SDS011;2960;49.142;7.768;2024-03-08T06:21:06;12.27;;;5.57;;
5867;SDS011;2960;49.142;7.768;2024-03-08T06:23:36;14.20;;;5.63;;
5867;SDS011;2960;49.142;7.768;2024-03-08T06:26:04;15.67;;;6.20;;
5867;SDS011;2960;49.142;7.768;2024-03-08T06:28:31;14.80;;;6.03;;
5867;SDS011;2960;49.142;7.768;2024-03-08T06:30:59;14.90;;;6.23;;
5867;SDS011;2960;49.142;7.768;2024-03-08T06:33:27;13.90;;;5.57;;
5867;SDS011;2960;49.142;7.768;2024-03-08T06:35:56;17.20;;;6.23;;
5867;SDS011;2960;49.142;7.768;2024-03-08T06:38:23;14.30;;;6.10;;
5867;SDS011;2960;49.142;7.768;2024-03-08T06:40:51;13.63;;;5.90;;
5867;SDS011;2960;49.142;7.768;2024-03-08T06:43:19;15.63;;;5.93;;
5867;SDS011;2960;49.142;7.768;2024-03-08T06:45:46;15.33;;;5.73;;
5867;SDS011;2960;49.142;7.768;2024-03-08T06:48:14;16.57;;;5.90;;
5867;SDS011;2960;49.142;7.768;2024-03-08T06:50:42;14.60;;;5.77;;
5867;SDS011;2960;49.142;7.768;2024-03-08T06:53:11;14.20;;;5.20;;
5867;SDS011;2960;49.142;7.768;2024-03-08T06:55:39;13.40;;;5.30;;
5867;SDS011;2960;49.142;7.768;2024-03-08T06:58:06;13.13;;;4.93;;
5867;SDS011;2960;49.142;7.768;2024-03-08T07:00:33;11.90;;;5.23;;
5867;SDS011;2960;49.142;7.768;2024-03-08T07:03:01;13.10;;;5.33;;
5867;SDS011;2960;49.142;7.768;2024-03-08T07:05:28;14.17;;;5.50;;
5867;SDS011;2960;49.142;7.768;2024-03-08T07:07:57;13.03;;;5.57;;
5867;SDS011;2960;49.142;7.768;2024-03-08T07:10:26;12.87;;;5.60;;
5867;SDS011;2960;49.142;7.768;2024-03-08T07:12:54;12.77;;;5.10;;
5867;SDS011;2960;49.142;7.768;2024-03-08T07:15:21;14.23;;;5.47;;
5867;SDS011;2960;49.142;7.768;2024-03-08T07:17:49;13.43;;;5.47;;
5867;SDS011;2960;49.142;7.768;2024-03-08T07:20:18;13.87;;;5.33;;
5867;SDS011;2960;49.142;7.768;2024-03-08T07:22:45;14.20;;;5.30;;
5867;SDS011;2960;49.142;7.768;2024-03-08T07:25:16;13.60;;;6.00;;
5867;SDS011;2960;49.142;7.768;2024-03-08T07:27:47;14.17;;;5.50;;
5867;SDS011;2960;49.142;7.768;2024-03-08T07:30:15;17.03;;;6.93;;
5867;SDS011;2960;49.142;7.768;2024-03-08T07:33:03;15.60;;;6.60;;
5867;SDS011;2960;49.142;7.768;2024-03-08T07:35:32;16.77;;;6.83;;
5867;SDS011;2960;49.142;7.768;2024-03-08T07:38:02;17.83;;;6.40;;
5867;SDS011;2960;49.142;7.768;2024-03-08T07:40:30;14.97;;;6.63;;
5867;SDS011;2960;49.142;7.768;2024-03-08T07:42:59;15.00;;;6.80;;
5867;SDS011;2960;49.142;7.768;2024-03-08T07:45:27;17.00;;;6.57;;
5867;SDS011;2960;49.142;7.768;2024-03-08T07:47:55;16.50;;;7.10;;
5867;SDS011;2960;49.142;7.768;2024-03-08T07:50:22;15.83;;;6.70;;
5867;SDS011;2960;49.142;7.768;2024-03-08T07:52:50;15.90;;;7.03;;
5867;SDS011;2960;49.142;7.768;2024-03-08T07:55:17;19.53;;;7.73;;
5867;SDS011;2960;49.142;7.768;2024-03-08T07:57:44;18.97;;;7.80;;
5867;SDS011;2960;49.142;7.768;2024-03-08T08:00:14;16.07;;;7.23;;
5867;SDS011;2960;49.142;7.768;2024-03-08T08:02:43;16.40;;;6.80;;
5867;SDS011;2960;49.142;7.768;2024-03-08T08:05:11;18.20;;;7.60;;
5867;SDS011;2960;49.142;7.768;2024-03-08T08:07:39;15.80;;;7.07;;
5867;SDS011;2960;49.142;7.768;2024-03-08T08:10:08;15.33;;;7.23;;
5867;SDS011;2960;49.142;7.768;2024-03-08T08:12:42;19.13;;;7.53;;
5867;SDS011;2960;49.142;7.768;2024-03-08T08:15:09;18.03;;;7.53;;
5867;SDS011;2960;49.142;7.768;2024-03-08T08:17:38;21.40;;;8.23;;
5867;SDS011;2960;49.142;7.768;2024-03-08T08:20:05;19.40;;;7.73;;
5867;SDS011;2960;49.142;7.768;2024-03-08T08:22:33;14.87;;;6.87;;
5867;SDS011;2960;49.142;7.768;2024-03-08T08:25:03;17.70;;;7.77;;
5867;SDS011;2960;49.142;7.768;2024-03-08T08:27:31;18.77;;;7.80;;
5867;SDS011;2960;49.142;7.768;2024-03-08T08:29:58;19.43;;;8.30;;
5867;SDS011;2960;49.142;7.768;2024-03-08T08:32:26;20.10;;;9.50;;
5867;SDS011;2960;49.142;7.768;2024-03-08T08:34:54;20.87;;;9.13;;
5867;SDS011;2960;49.142;7.768;2024-03-08T08:37:23;22.10;;;9.33;;
5867;SDS011;2960;49.142;7.768;2024-03-08T08:39:51;21.67;;;9.43;;
5867;SDS011;2960;49.142;7.768;2024-03-08T08:42:18;17.77;;;7.90;;
5867;SDS011;2960;49.142;7.768;2024-03-08T08:44:45;18.60;;;8.13;;
5867;SDS011;2960;49.142;7.768;2024-03-08T08:47:14;17.00;;;7.97;;
5867;SDS011;2960;49.142;7.768;2024-03-08T08:49:43;17.27;;;7.93;;
5867;SDS011;2960;49.142;7.768;2024-03-08T08:52:13;18.47;;;7.77;;
5867;SDS011;2960;49.142;7.768;2024-03-08T08:54:41;21.50;;;8.40;;
5867;SDS011;2960;49.142;7.768;2024-03-08T08:57:09;20.40;;;8.33;;
5867;SDS011;2960;49.142;7.768;2024-03-08T08:59:37;18.63;;;8.13;;
5867;SDS011;2960;49.142;7.768;2024-03-08T09:02:05;16.70;;;7.80;;
5867;SDS011;2960;49.142;7.768;2024-03-08T09:04:34;19.37;;;7.80;;
5867;SDS011;2960;49.142;7.768;2024-03-08T09:07:01;18.10;;;7.53;;
5867;SDS011;2960;49.142;7.768;2024-03-08T09:09:32;18.77;;;8.07;;
5867;SDS011;2960;49.142;7.768;2024-03-08T09:12:00;17.10;;;7.33;;
5867;SDS011;2960;49.142;7.768;2024-03-08T09:14:27;18.20;;;7.53;;
5867;SDS011;2960;49.142;7.768;2024-03-08T09:16:54;16.17;;;7.50;;
5867;SDS011;2960;49.142;7.768;2024-03-08T09:19:22;16.37;;;7.90;;
5867;SDS011;2960;49.142;7.768;2024-03-08T09:21:51;17.57;;;7.70;;
5867;SDS011;2960;49.142;7.768;2024-03-08T09:24:18;18.03;;;7.73;;
5867;SDS011;2960;49.142;7.768;2024-03-08T09:26:47;17.10;;;7.20;;
5867;SDS011;2960;49.142;7.768;2024-03-08T09:29:14;15.70;;;7.60;;
5867;SDS011;2960;49.142;7.768;2024-03-08T09:31:41;17.93;;;7.70;;
5867;SDS011;2960;49.142;7.768;2024-03-08T09:34:08;17.37;;;7.17;;
5867;SDS011;2960;49.142;7.768;2024-03-08T09:36:35;16.77;;;7.80;;
5867;SDS011;2960;49.142;7.768;2024-03-08T09:39:02;19.23;;;8.20;;
5867;SDS011;2960;49.142;7.768;2024-03-08T09:41:32;18.30;;;8.13;;
5867;SDS011;2960;49.142;7.768;2024-03-08T09:44:01;17.77;;;7.90;;
5867;SDS011;2960;49.142;7.768;2024-03-08T09:46:30;17.63;;;8.30;;
5867;SDS011;2960;49.142;7.768;2024-03-08T09:48:57;21.37;;;8.90;;
5867;SDS011;2960;49.142;7.768;2024-03-08T09:51:27;20.70;;;8.77;;
5867;SDS011;2960;49.142;7.768;2024-03-08T09:53:55;17.90;;;8.20;;
5867;SDS011;2960;49.142;7.768;2024-03-08T09:56:24;17.73;;;7.70;;
5867;SDS011;2960;49.142;7.768;2024-03-08T09:58:53;17.37;;;8.33;;
5867;SDS011;2960;49.142;7.768;2024-03-08T10:01:45;18.57;;;7.90;;
5867;SDS011;2960;49.142;7.768;2024-03-08T10:04:12;17.83;;;7.97;;
5867;SDS011;2960;49.142;7.768;2024-03-08T10:06:39;18.83;;;8.80;;
5867;SDS011;2960;49.142;7.768;2024-03-08T10:09:06;18.53;;;8.00;;
5867;SDS011;2960;49.142;7.768;2024-03-08T10:11:35;19.77;;;10.07;;
5867;SDS011;2960;49.142;7.768;2024-03-08T10:14:03;20.70;;;8.40;;
5867;SDS011;2960;49.142;7.768;2024-03-08T10:16:31;19.73;;;8.40;;
5867;SDS011;2960;49.142;7.768;2024-03-08T10:19:01;21.30;;;8.63;;
5867;SDS011;2960;49.142;7.768;2024-03-08T10:21:30;19.67;;;8.50;;
5867;SDS011;2960;49.142;7.768;2024-03-08T10:23:59;17.00;;;8.53;;
5867;SDS011;2960;49.142;7.768;2024-03-08T10:26:26;18.50;;;7.87;;
5867;SDS011;2960;49.142;7.768;2024-03-08T10:28:53;19.67;;;8.97;;
5867;SDS011;2960;49.142;7.768;2024-03-08T10:31:20;19.37;;;8.37;;
5867;SDS011;2960;49.142;7.768;2024-03-08T10:33:47;18.93;;;8.30;;
5867;SDS011;2960;49.142;7.768;2024-03-08T10:36:16;21.40;;;7.90;;
5867;SDS011;2960;49.142;7.768;2024-03-08T10:38:44;19.70;;;9.30;;
5867;SDS011;2960;49.142;7.768;2024-03-08T10:41:12;16.83;;;7.67;;
5867;SDS011;2960;49.142;7.768;2024-03-08T10:43:46;19.07;;;8.20;;
5867;SDS011;2960;49.142;7.768;2024-03-08T10:46:36;16.80;;;7.27;;
5867;SDS011;2960;49.142;7.768;2024-03-08T10:49:25;17.60;;;7.90;;
5867;SDS011;2960;49.142;7.768;2024-03-08T10:52:01;19.30;;;8.23;;
5867;SDS011;2960;49.142;7.768;2024-03-08T10:54:33;19.00;;;8.40;;
5867;SDS011;2960;49.142;7.768;2024-03-08T10:57:05;18.60;;;8.80;;
5867;SDS011;2960;49.142;7.768;2024-03-08T10:59:33;17.33;;;8.23;;
5867;SDS011;2960;49.142;7.768;2024-03-08T11:02:01;17.20;;;7.93;;
5867;SDS011;2960;49.142;7.768;2024-03-08T11:04:30;20.90;;;9.20;;
5867;SDS011;2960;49.142;7.768;2024-03-08T11:07:01;15.83;;;7.40;;
5867;SDS011;2960;49.142;7.768;2024-03-08T11:09:31;18.07;;;8.40;;
5867;SDS011;2960;49.142;7.768;2024-03-08T11:12:24;18.37;;;8.50;;
5867;SDS011;2960;49.142;7.768;2024-03-08T11:14:54;17.37;;;8.00;;
5867;SDS011;2960;49.142;7.768;2024-03-08T11:17:26;19.50;;;8.57;;
5867;SDS011;2960;49.142;7.768;2024-03-08T11:20:10;19.93;;;8.53;;
5867;SDS011;2960;49.142;7.768;2024-03-08T11:22:50;22.70;;;8.67;;
5867;SDS011;2960;49.142;7.768;2024-03-08T11:25:35;17.20;;;7.50;;
5867;SDS011;2960;49.142;7.768;2024-03-08T11:28:07;16.33;;;7.93;;
5867;SDS011;2960;49.142;7.768;2024-03-08T11:30:42;15.00;;;6.80;;
5867;SDS011;2960;49.142;7.768;2024-03-08T11:33:12;15.70;;;7.80;;
5867;SDS011;2960;49.142;7.768;2024-03-08T11:35:39;18.33;;;8.40;;
5867;SDS011;2960;49.142;7.768;2024-03-08T11:38:12;22.17;;;9.00;;
5867;SDS011;2960;49.142;7.768;2024-03-08T11:40:45;20.33;;;8.47;;
5867;SDS011;2960;49.142;7.768;2024-03-08T11:43:20;17.67;;;7.90;;
5867;SDS011;2960;49.142;7.768;2024-03-08T11:45:51;20.37;;;8.10;;
5867;SDS011;2960;49.142;7.768;2024-03-08T11:48:34;21.30;;;7.73;;
5867;SDS011;2960;49.142;7.768;2024-03-08T11:51:01;19.20;;;8.23;;
5867;SDS011;2960;49.142;7.768;2024-03-08T11:53:31;16.30;;;7.27;;
5867;SDS011;2960;49.142;7.768;2024-03-08T11:56:05;18.00;;;7.77;;
5867;SDS011;2960;49.142;7.768;2024-03-08T11:58:33;17.00;;;7.27;;
5867;SDS011;2960;49.142;7.768;2024-03-08T12:01:02;20.50;;;8.07;;
5867;SDS011;2960;49.142;7.768;2024-03-08T12:03:31;17.53;;;7.83;;
5867;SDS011;2960;49.142;7.768;2024-03-08T12:05:59;18.20;;;8.00;;
5867;SDS011;2960;49.142;7.768;2024-03-08T12:08:28;16.67;;;8.03;;
5867;SDS011;2960;49.142;7.768;2024-03-08T12:10:58;16.80;;;7.60;;
5867;SDS011;2960;49.142;7.768;2024-03-08T12:13:25;15.90;;;7.10;;
5867;SDS011;2960;49.142;7.768;2024-03-08T12:15:55;16.40;;;7.20;;
5867;SDS011;2960;49.142;7.768;2024-03-08T12:18:24;19.00;;;7.90;;
5867;SDS011;2960;49.142;7.768;2024-03-08T12:21:03;17.00;;;7.87;;
5867;SDS011;2960;49.142;7.768;2024-03-08T12:23:34;16.73;;;7.77;;
5867;SDS011;2960;49.142;7.768;2024-03-08T12:26:09;17.33;;;7.70;;
5867;SDS011;2960;49.142;7.768;2024-03-08T12:28:38;16.93;;;8.60;;
5867;SDS011;2960;49.142;7.768;2024-03-08T12:31:06;18.10;;;7.93;;
5867;SDS011;2960;49.142;7.768;2024-03-08T12:33:51;20.10;;;9.07;;
5867;SDS011;2960;49.142;7.768;2024-03-08T12:36:25;19.60;;;9.40;;
5867;SDS011;2960;49.142;7.768;2024-03-08T12:38:54;21.83;;;9.43;;
5867;SDS011;2960;49.142;7.768;2024-03-08T12:41:22;16.97;;;8.17;;
5867;SDS011;2960;49.142;7.768;2024-03-08T12:43:49;16.27;;;8.00;;
5867;SDS011;2960;49.142;7.768;2024-03-08T12:46:17;17.20;;;8.37;;
5867;SDS011;2960;49.142;7.768;2024-03-08T12:48:46;16.77;;;7.70;;
5867;SDS011;2960;49.142;7.768;2024-03-08T12:51:14;18.33;;;7.83;;
5867;SDS011;2960;49.142;7.768;2024-03-08T12:53:41;15.60;;;7.53;;
5867;SDS011;2960;49.142;7.768;2024-03-08T12:56:10;18.23;;;8.20;;
5867;SDS011;2960;49.142;7.768;2024-03-08T12:58:38;20.20;;;8.60;;
5867;SDS011;2960;49.142;7.768;2024-03-08T13:01:05;17.60;;;7.77;;
5867;SDS011;2960;49.142;7.768;2024-03-08T13:03:33;15.67;;;7.10;;
5867;SDS011;2960;49.142;7.768;2024-03-08T13:06:01;16.87;;;7.37;;
5867;SDS011;2960;49.142;7.768;2024-03-08T13:08:30;16.70;;;7.87;;
5867;SDS011;2960;49.142;7.768;2024-03-08T13:11:01;17.87;;;8.00;;
5867;SDS011;2960;49.142;7.768;2024-03-08T13:13:30;18.40;;;7.67;;
5867;SDS011;2960;49.142;7.768;2024-03-08T13:16:00;17.93;;;7.73;;
5867;SDS011;2960;49.142;7.768;2024-03-08T13:18:28;18.40;;;7.70;;
5867;SDS011;2960;49.142;7.768;2024-03-08T13:20:55;18.80;;;7.20;;
5867;SDS011;2960;49.142;7.768;2024-03-08T13:23:22;17.63;;;7.60;;
5867;SDS011;2960;49.142;7.768;2024-03-08T13:25:49;16.93;;;8.00;;
5867;SDS011;2960;49.142;7.768;2024-03-08T13:28:17;15.87;;;7.10;;
5867;SDS011;2960;49.142;7.768;2024-03-08T13:30:49;15.47;;;6.93;;
5867;SDS011;2960;49.142;7.768;2024-03-08T13:33:16;17.17;;;7.87;;
5867;SDS011;2960;49.142;7.768;2024-03-08T13:35:44;16.37;;;7.87;;
5867;SDS011;2960;49.142;7.768;2024-03-08T13:38:11;17.80;;;7.57;;
5867;SDS011;2960;49.142;7.768;2024-03-08T13:40:39;18.47;;;7.50;;
5867;SDS011;2960;49.142;7.768;2024-03-08T13:43:07;16.87;;;7.90;;
5867;SDS011;2960;49.142;7.768;2024-03-08T13:45:34;17.33;;;7.63;;
5867;SDS011;2960;49.142;7.768;2024-03-08T13:48:04;16.10;;;7.13;;
5867;SDS011;2960;49.142;7.768;2024-03-08T13:50:36;16.80;;;7.53;;
5867;SDS011;2960;49.142;7.768;2024-03-08T13:53:03;14.57;;;6.70;;
5867;SDS011;2960;49.142;7.768;2024-03-08T13:55:31;19.17;;;7.30;;
5867;SDS011;2960;49.142;7.768;2024-03-08T13:57:58;16.97;;;7.07;;
5867;SDS011;2960;49.142;7.768;2024-03-08T14:00:26;16.50;;;6.70;;
5867;SDS011;2960;49.142;7.768;2024-03-08T14:02:58;17.90;;;7.30;;
5867;SDS011;2960;49.142;7.768;2024-03-08T14:05:26;16.17;;;7.10;;
5867;SDS011;2960;49.142;7.768;2024-03-08T14:07:57;16.47;;;7.47;;
5867;SDS011;2960;49.142;7.768;2024-03-08T14:10:26;14.87;;;6.43;;
5867;SDS011;2960;49.142;7.768;2024-03-08T14:12:53;14.63;;;6.30;;
5867;SDS011;2960;49.142;7.768;2024-03-08T14:15:20;15.57;;;6.43;;
5867;SDS011;2960;49.142;7.768;2024-03-08T14:17:52;17.50;;;8.10;;
5867;SDS011;2960;49.142;7.768;2024-03-08T14:20:19;18.40;;;8.40;;
5867;SDS011;2960;49.142;7.768;2024-03-08T14:22:51;18.20;;;8.53;;
5867;SDS011;2960;49.142;7.768;2024-03-08T14:25:19;17.03;;;7.23;;
5867;SDS011;2960;49.142;7.768;2024-03-08T14:27:48;15.80;;;7.50;;
5867;SDS011;2960;49.142;7.768;2024-03-08T14:30:18;17.50;;;7.20;;
5867;SDS011;2960;49.142;7.768;2024-03-08T14:32:59;16.93;;;7.93;;
5867;SDS011;2960;49.142;7.768;2024-03-08T14:35:27;16.63;;;7.50;;
5867;SDS011;2960;49.142;7.768;2024-03-08T14:37:56;19.57;;;8.20;;
5867;SDS011;2960;49.142;7.768;2024-03-08T14:40:24;18.50;;;7.90;;
5867;SDS011;2960;49.142;7.768;2024-03-08T14:42:51;17.93;;;7.83;;
5867;SDS011;2960;49.142;7.768;2024-03-08T14:45:18;19.23;;;8.40;;
5867;SDS011;2960;49.142;7.768;2024-03-08T14:47:46;20.53;;;7.83;;
5867;SDS011;2960;49.142;7.768;2024-03-08T14:50:16;18.93;;;8.07;;
5867;SDS011;2960;49.142;7.768;2024-03-08T14:52:43;19.33;;;7.60;;
5867;SDS011;2960;49.142;7.768;2024-03-08T14:55:12;15.93;;;6.73;;
5867;SDS011;2960;49.142;7.768;2024-03-08T14:57:40;15.23;;;7.10;;
5867;SDS011;2960;49.142;7.768;2024-03-08T15:00:10;16.50;;;7.10;;
5867;SDS011;2960;49.142;7.768;2024-03-08T15:02:42;16.97;;;7.60;;
5867;SDS011;2960;49.142;7.768;2024-03-08T15:05:10;17.13;;;7.10;;
5867;SDS011;2960;49.142;7.768;2024-03-08T15:07:38;17.00;;;7.30;;
5867;SDS011;2960;49.142;7.768;2024-03-08T15:10:07;16.10;;;7.67;;
5867;SDS011;2960;49.142;7.768;2024-03-08T15:12:40;16.97;;;7.87;;